Time;durP1;ratioP1;P1;durP2;ratioP2;P2;SDS_P1;SDS_P2;PMS_P1;PMS_P2;Temp;Humidity;BMP_temperature;BMP_pressure;BME280_temperature;BME280_humidity;BME280_pressure;Samples;Min_cycle;Max_cycle;Signal;HPM_P1;HPM_P2
2022/01/06 00:01:36;;;;;;;6.50;2.55;;;;;;;;;;5015595;28;20191;-80
2022/01/06 00:04:03;;;;;;;7.13;2.55;;;;;;;;;;5014338;28;20218;-80
2022/01/06 00:06:37;;;;;;;7.32;2.05;;;;;;;;;;5015606;28;20227;-80
2022/01/06 00:09:06;;;;;;;7.53;2.47;;;;;;;;;;5015347;28;20191;-80
2022/01/06 00:11:35;;;;;;;7.25;2.75;;;;;;;;;;5015531;28;20199;-79
2022/01/06 00:14:07;;;;;;;12.07;2.85;;;;;;;;;;5028798;28;20238;-80
2022/01/06 00:16:42;;;;;;;11.98;3.17;;;;;;;;;;5035393;28;20253;-80
2022/01/06 00:24:41;;;;;;;11.10;3.40;;;;;;;;;;5034493;28;20213;-80
2022/01/06 00:27:08;;;;;;;10.13;2.83;;;;;;;;;;5034940;28;20233;-80
2022/01/06 00:29:35;;;;;;;5.43;2.63;;;;;;;;;;5035315;28;20187;-81
2022/01/06 00:32:03;;;;;;;5.38;2.00;;;;;;;;;;5034485;28;20202;-81
2022/01/06 00:34:31;;;;;;;4.78;2.53;;;;;;;;;;5035105;28;20551;-80
2022/01/06 00:37:01;;;;;;;7.60;2.97;;;;;;;;;;5035066;28;20245;-81
2022/01/06 00:39:28;;;;;;;7.43;2.75;;;;;;;;;;5034296;28;20198;-80
2022/01/06 00:41:58;;;;;;;7.82;2.42;;;;;;;;;;5034564;28;20198;-80
2022/01/06 00:44:25;;;;;;;9.15;3.42;;;;;;;;;;5034749;28;20266;-80
2022/01/06 00:46:53;;;;;;;8.60;2.20;;;;;;;;;;5034670;28;20694;-80
2022/01/06 00:49:22;;;;;;;8.00;2.33;;;;;;;;;;5034717;28;20201;-80
2022/01/06 00:51:49;;;;;;;8.18;3.05;;;;;;;;;;5034682;28;20212;-80
2022/01/06 00:54:18;;;;;;;3.88;1.90;;;;;;;;;;5034043;28;20183;-80
2022/01/06 00:56:46;;;;;;;5.45;2.22;;;;;;;;;;5034156;28;20763;-80
2022/01/06 00:59:13;;;;;;;13.23;2.80;;;;;;;;;;5033710;28;20565;-80
2022/01/06 01:01:41;;;;;;;9.32;2.78;;;;;;;;;;5034366;28;20187;-80
2022/01/06 01:04:08;;;;;;;10.52;3.13;;;;;;;;;;5034141;28;20206;-81
2022/01/06 01:06:35;;;;;;;7.30;2.25;;;;;;;;;;5034183;28;20238;-81
2022/01/06 01:09:03;;;;;;;6.38;2.78;;;;;;;;;;5034499;28;20382;-80
2022/01/06 01:11:32;;;;;;;9.55;2.78;;;;;;;;;;5034632;28;20192;-81
2022/01/06 01:14:16;;;;;;;8.02;2.30;;;;;;;;;;5034047;28;20238;-80
2022/01/06 01:16:52;;;;;;;9.85;2.80;;;;;;;;;;5034020;28;20209;-80
2022/01/06 01:19:20;;;;;;;9.60;3.22;;;;;;;;;;5034509;28;20202;-80
2022/01/06 01:21:48;;;;;;;6.68;2.35;;;;;;;;;;5034423;28;20183;-80
2022/01/06 01:24:16;;;;;;;6.22;3.03;;;;;;;;;;5034157;28;20212;-80
2022/01/06 01:26:45;;;;;;;8.32;3.00;;;;;;;;;;5034660;28;20229;-80
2022/01/06 01:29:16;;;;;;;10.43;2.50;;;;;;;;;;5033952;28;20603;-81
2022/01/06 01:31:47;;;;;;;8.32;3.25;;;;;;;;;;5034014;28;20285;-79
2022/01/06 01:34:20;;;;;;;8.43;2.90;;;;;;;;;;5034499;28;20187;-80
2022/01/06 01:36:48;;;;;;;9.50;3.13;;;;;;;;;;5033561;28;20719;-80
2022/01/06 01:39:15;;;;;;;12.00;3.40;;;;;;;;;;5034105;28;20217;-80
2022/01/06 01:41:45;;;;;;;14.55;4.65;;;;;;;;;;5034382;28;20190;-80
2022/01/06 01:44:15;;;;;;;5.82;2.92;;;;;;;;;;5034044;28;20214;-80
2022/01/06 01:46:46;;;;;;;8.07;2.38;;;;;;;;;;5033754;28;20725;-80
2022/01/06 01:49:29;;;;;;;5.32;2.22;;;;;;;;;;5034032;28;20651;-80
2022/01/06 01:51:57;;;;;;;7.18;2.70;;;;;;;;;;5038196;28;20201;-80
2022/01/06 01:54:25;;;;;;;9.05;3.40;;;;;;;;;;5038531;28;20198;-80
2022/01/06 01:56:54;;;;;;;6.63;2.55;;;;;;;;;;5037966;28;20221;-80
2022/01/06 01:59:21;;;;;;;6.93;3.47;;;;;;;;;;5037515;28;20209;-80
2022/01/06 02:01:49;;;;;;;5.22;2.67;;;;;;;;;;5037900;28;20187;-80
2022/01/06 02:04:16;;;;;;;7.32;2.45;;;;;;;;;;5038347;28;20210;-80
2022/01/06 02:06:43;;;;;;;8.63;2.75;;;;;;;;;;5037746;28;20722;-80
2022/01/06 02:09:11;;;;;;;7.38;3.22;;;;;;;;;;5037863;28;20194;-80
2022/01/06 02:11:38;;;;;;;7.20;3.40;;;;;;;;;;5037342;28;20198;-80
2022/01/06 02:14:07;;;;;;;4.13;2.20;;;;;;;;;;5037047;28;20612;-80
2022/01/06 02:16:37;;;;;;;8.77;3.35;;;;;;;;;;5037012;28;20218;-80
2022/01/06 02:19:04;;;;;;;9.38;2.47;;;;;;;;;;5037823;28;20244;-80
2022/01/06 02:21:33;;;;;;;13.40;3.75;;;;;;;;;;5037718;28;20670;-80
2022/01/06 02:24:00;;;;;;;11.63;2.70;;;;;;;;;;5037185;28;20677;-80
2022/01/06 02:26:28;;;;;;;5.55;2.65;;;;;;;;;;5037586;28;20226;-79
2022/01/06 02:28:55;;;;;;;13.43;4.15;;;;;;;;;;5037433;28;20197;-81
2022/01/06 02:31:23;;;;;;;4.40;2.13;;;;;;;;;;5036868;28;20201;-80
2022/01/06 02:33:50;;;;;;;8.65;2.53;;;;;;;;;;5037177;28;20198;-80
2022/01/06 02:36:19;;;;;;;10.30;2.60;;;;;;;;;;5037047;28;20210;-80
2022/01/06 02:38:48;;;;;;;8.50;2.38;;;;;;;;;;5036906;28;20187;-80
2022/01/06 02:41:15;;;;;;;4.78;2.13;;;;;;;;;;5036684;28;20202;-79
2022/01/06 02:43:44;;;;;;;8.82;2.90;;;;;;;;;;5037338;28;20202;-80
2022/01/06 02:46:11;;;;;;;6.65;2.30;;;;;;;;;;5034917;28;20222;-80
2022/01/06 02:48:39;;;;;;;9.23;3.25;;;;;;;;;;5036458;28;20202;-80
2022/01/06 02:51:06;;;;;;;9.10;2.90;;;;;;;;;;5037236;28;20183;-80
2022/01/06 02:53:33;;;;;;;3.50;2.47;;;;;;;;;;5036234;28;20208;-80
2022/01/06 02:56:02;;;;;;;7.80;2.70;;;;;;;;;;5036753;28;20194;-79
2022/01/06 02:58:30;;;;;;;8.73;3.60;;;;;;;;;;5035679;28;20205;-79
2022/01/06 03:00:57;;;;;;;7.65;1.88;;;;;;;;;;5036492;28;20182;-80
2022/01/06 03:03:24;;;;;;;6.90;2.22;;;;;;;;;;5035603;28;20186;-80
2022/01/06 03:05:52;;;;;;;6.30;2.30;;;;;;;;;;5035701;28;20226;-80
2022/01/06 03:08:23;;;;;;;6.65;2.25;;;;;;;;;;5036367;28;20231;-80
2022/01/06 03:10:50;;;;;;;3.03;1.60;;;;;;;;;;5036997;28;20669;-79
2022/01/06 03:13:19;;;;;;;3.15;1.80;;;;;;;;;;5036308;28;20710;-80
2022/01/06 03:15:46;;;;;;;4.82;1.77;;;;;;;;;;5036109;28;20198;-80
2022/01/06 03:18:14;;;;;;;4.15;1.92;;;;;;;;;;5036827;28;20223;-80
2022/01/06 03:20:41;;;;;;;6.15;2.30;;;;;;;;;;5036150;28;20198;-80
2022/01/06 03:23:09;;;;;;;7.75;2.80;;;;;;;;;;5036512;28;20193;-79
2022/01/06 03:25:36;;;;;;;10.00;2.33;;;;;;;;;;5035960;28;20229;-80
2022/01/06 03:28:04;;;;;;;6.45;2.20;;;;;;;;;;5035889;28;20253;-80
2022/01/06 03:30:33;;;;;;;7.00;2.35;;;;;;;;;;5035797;28;20186;-80
2022/01/06 03:33:00;;;;;;;4.75;2.15;;;;;;;;;;5035747;28;20175;-80
2022/01/06 03:35:27;;;;;;;7.93;3.33;;;;;;;;;;5035873;28;20194;-80
2022/01/06 03:37:55;;;;;;;3.38;2.25;;;;;;;;;;5035472;28;20599;-79
2022/01/06 03:40:23;;;;;;;2.88;1.60;;;;;;;;;;5034970;28;20203;-79
2022/01/06 03:42:50;;;;;;;3.78;2.60;;;;;;;;;;5035349;28;20186;-79
2022/01/06 03:45:20;;;;;;;4.47;1.73;;;;;;;;;;5035356;28;20210;-79
2022/01/06 03:47:48;;;;;;;2.65;1.80;;;;;;;;;;5035692;28;20602;-79
2022/01/06 03:50:17;;;;;;;2.70;1.55;;;;;;;;;;5035124;28;20187;-79
2022/01/06 03:52:45;;;;;;;3.92;1.55;;;;;;;;;;5035858;28;20183;-79
2022/01/06 03:55:19;;;;;;;2.50;1.60;;;;;;;;;;5035715;28;20650;-79
2022/01/06 03:57:47;;;;;;;5.53;2.35;;;;;;;;;;5035451;28;20226;-78
2022/01/06 04:00:20;;;;;;;3.13;1.25;;;;;;;;;;5034342;28;20286;-79
2022/01/06 04:02:49;;;;;;;3.50;2.05;;;;;;;;;;5034101;28;20203;-80
2022/01/06 04:05:16;;;;;;;2.92;1.85;;;;;;;;;;5035128;28;20201;-78
2022/01/06 04:07:44;;;;;;;2.85;1.65;;;;;;;;;;5034728;28;20214;-79
2022/01/06 04:10:12;;;;;;;1.98;1.20;;;;;;;;;;5033776;28;20182;-84
2022/01/06 04:12:40;;;;;;;4.00;1.83;;;;;;;;;;5034192;28;20309;-79
2022/01/06 04:15:13;;;;;;;2.78;1.73;;;;;;;;;;5032672;28;20203;-79
2022/01/06 04:17:40;;;;;;;2.85;1.48;;;;;;;;;;5034252;28;20214;-79
2022/01/06 04:20:11;;;;;;;3.33;1.88;;;;;;;;;;5034276;28;20186;-79
2022/01/06 04:22:39;;;;;;;2.67;1.83;;;;;;;;;;5034749;28;20266;-80
2022/01/06 04:25:08;;;;;;;1.75;1.40;;;;;;;;;;5034542;28;20209;-79
2022/01/06 04:27:35;;;;;;;2.40;1.70;;;;;;;;;;5032789;28;20222;-80
2022/01/06 04:30:05;;;;;;;3.13;1.40;;;;;;;;;;5035039;28;20185;-79
2022/01/06 04:32:33;;;;;;;2.35;1.83;;;;;;;;;;5034328;28;20226;-80
2022/01/06 04:35:00;;;;;;;3.45;2.05;;;;;;;;;;5034395;28;20616;-79
2022/01/06 04:37:29;;;;;;;3.10;2.00;;;;;;;;;;5034431;28;20220;-79
2022/01/06 04:39:56;;;;;;;6.65;1.73;;;;;;;;;;5034778;28;20207;-78
2022/01/06 04:42:24;;;;;;;2.83;1.50;;;;;;;;;;5034189;28;20585;-79
2022/01/06 04:44:51;;;;;;;1.85;1.50;;;;;;;;;;5034681;28;20187;-80
2022/01/06 04:47:19;;;;;;;2.58;2.15;;;;;;;;;;5033748;28;20230;-80
2022/01/06 04:49:46;;;;;;;3.50;1.60;;;;;;;;;;5032044;28;20201;-80
2022/01/06 04:52:14;;;;;;;2.25;1.42;;;;;;;;;;5034771;28;20190;-80
2022/01/06 04:54:42;;;;;;;4.40;1.83;;;;;;;;;;5033699;28;20187;-79
2022/01/06 04:57:10;;;;;;;2.88;1.63;;;;;;;;;;5033583;28;20218;-79
2022/01/06 04:59:39;;;;;;;1.60;1.23;;;;;;;;;;5033761;28;20693;-79
2022/01/06 05:02:07;;;;;;;3.67;1.92;;;;;;;;;;5033913;28;20237;-80
2022/01/06 05:04:34;;;;;;;4.93;2.05;;;;;;;;;;5033427;28;20190;-80
2022/01/06 05:07:02;;;;;;;3.42;1.50;;;;;;;;;;5034065;28;20226;-80
2022/01/06 05:09:29;;;;;;;4.07;2.10;;;;;;;;;;5033559;28;20686;-79
2022/01/06 05:11:58;;;;;;;2.03;1.58;;;;;;;;;;5033262;28;20204;-79
2022/01/06 05:14:25;;;;;;;2.70;2.08;;;;;;;;;;5034132;28;20233;-79
2022/01/06 05:16:55;;;;;;;5.00;1.73;;;;;;;;;;5034387;28;20238;-79
2022/01/06 05:19:23;;;;;;;1.98;1.48;;;;;;;;;;5034623;28;20179;-80
2022/01/06 05:21:52;;;;;;;4.07;2.42;;;;;;;;;;5034404;28;20199;-79
2022/01/06 05:24:23;;;;;;;5.10;1.77;;;;;;;;;;5033665;28;20191;-79
2022/01/06 05:26:51;;;;;;;4.03;1.40;;;;;;;;;;5033382;28;20599;-79
2022/01/06 05:29:19;;;;;;;4.32;2.03;;;;;;;;;;5034349;28;20225;-79
2022/01/06 05:31:47;;;;;;;4.03;2.10;;;;;;;;;;5033949;28;20190;-79
2022/01/06 05:34:15;;;;;;;2.22;1.63;;;;;;;;;;5034289;28;20202;-79
2022/01/06 05:36:42;;;;;;;2.72;2.08;;;;;;;;;;5033488;28;20222;-79
2022/01/06 05:39:10;;;;;;;2.10;1.52;;;;;;;;;;5033757;28;20210;-79
2022/01/06 05:41:37;;;;;;;3.72;1.60;;;;;;;;;;5014070;28;20565;-79
2022/01/06 05:44:05;;;;;;;2.65;1.40;;;;;;;;;;5024222;28;20194;-80
2022/01/06 05:46:34;;;;;;;2.72;1.30;;;;;;;;;;5033565;28;20272;-80
2022/01/06 05:49:03;;;;;;;1.73;1.20;;;;;;;;;;5034165;28;20233;-80
2022/01/06 05:51:30;;;;;;;1.40;1.30;;;;;;;;;;5034391;28;20210;-80
2022/01/06 05:53:58;;;;;;;1.20;1.10;;;;;;;;;;5033291;28;20575;-79
2022/01/06 05:56:27;;;;;;;1.15;1.05;;;;;;;;;;5033835;28;20218;-79
2022/01/06 05:58:54;;;;;;;1.17;1.08;;;;;;;;;;5034383;28;20237;-80
2022/01/06 06:01:22;;;;;;;1.45;1.35;;;;;;;;;;5033852;28;20194;-79
2022/01/06 06:03:52;;;;;;;1.45;1.02;;;;;;;;;;5033920;28;20225;-80
2022/01/06 06:06:20;;;;;;;0.82;0.82;;;;;;;;;;5034199;28;20183;-81
2022/01/06 06:08:47;;;;;;;4.65;1.63;;;;;;;;;;5033924;28;20183;-80
2022/01/06 06:11:16;;;;;;;1.30;1.20;;;;;;;;;;5034279;28;20194;-79
2022/01/06 06:13:44;;;;;;;1.45;1.30;;;;;;;;;;5033833;28;20234;-80
2022/01/06 06:16:11;;;;;;;2.05;1.20;;;;;;;;;;5033867;28;20202;-79
2022/01/06 06:18:39;;;;;;;1.20;1.10;;;;;;;;;;5032566;28;20194;-80
2022/01/06 06:21:09;;;;;;;1.27;1.17;;;;;;;;;;5032921;28;20194;-79
2022/01/06 06:23:36;;;;;;;2.50;1.10;;;;;;;;;;5032278;28;20183;-80
2022/01/06 06:26:04;;;;;;;1.55;1.05;;;;;;;;;;5033865;28;20183;-80
2022/01/06 06:28:31;;;;;;;1.45;1.20;;;;;;;;;;5032893;28;20228;-80
2022/01/06 06:30:59;;;;;;;3.45;1.42;;;;;;;;;;5032873;28;20203;-80
2022/01/06 06:33:26;;;;;;;1.20;1.10;;;;;;;;;;5033337;28;20559;-80
2022/01/06 06:35:54;;;;;;;1.50;1.10;;;;;;;;;;5033462;28;20190;-80
2022/01/06 06:38:22;;;;;;;1.65;1.15;;;;;;;;;;5022356;28;20223;-80
2022/01/06 06:40:50;;;;;;;3.03;1.00;;;;;;;;;;5023192;28;20253;-80
2022/01/06 06:43:17;;;;;;;1.77;1.15;;;;;;;;;;5036848;28;20207;-79
2022/01/06 06:45:45;;;;;;;1.80;1.70;;;;;;;;;;5036810;28;20206;-80
2022/01/06 06:48:13;;;;;;;1.42;1.02;;;;;;;;;;5037318;28;20226;-80
2022/01/06 06:50:40;;;;;;;3.92;1.42;;;;;;;;;;5036712;28;20792;-80
2022/01/06 06:53:08;;;;;;;1.10;0.90;;;;;;;;;;5037576;28;20195;-79
2022/01/06 06:55:37;;;;;;;2.10;1.48;;;;;;;;;;5037565;28;20187;-80
2022/01/06 06:58:04;;;;;;;2.88;1.67;;;;;;;;;;5036554;28;20309;-80
2022/01/06 07:00:32;;;;;;;2.30;1.25;;;;;;;;;;5037007;28;20196;-80
2022/01/06 07:02:59;;;;;;;1.42;1.08;;;;;;;;;;5036962;28;20186;-80
2022/01/06 07:05:28;;;;;;;1.20;1.08;;;;;;;;;;5036687;28;20209;-80
2022/01/06 07:07:55;;;;;;;0.80;0.80;;;;;;;;;;5035981;28;20226;-79
2022/01/06 07:10:23;;;;;;;1.30;1.20;;;;;;;;;;5036077;28;20614;-81
2022/01/06 07:12:51;;;;;;;1.00;1.00;;;;;;;;;;5036075;28;20237;-78
2022/01/06 07:15:19;;;;;;;1.10;1.00;;;;;;;;;;5049757;28;20201;-78
2022/01/06 07:17:47;;;;;;;0.82;0.82;;;;;;;;;;5041721;28;20741;-79
2022/01/06 07:20:15;;;;;;;1.30;0.70;;;;;;;;;;5036364;28;20194;-79
2022/01/06 07:22:42;;;;;;;0.80;0.80;;;;;;;;;;5036312;28;20186;-79
2022/01/06 07:25:10;;;;;;;0.90;0.90;;;;;;;;;;5035874;28;20206;-79
2022/01/06 07:27:38;;;;;;;1.00;1.00;;;;;;;;;;5036593;28;20230;-81
2022/01/06 07:30:08;;;;;;;1.05;0.90;;;;;;;;;;5036114;28;20638;-80
2022/01/06 07:32:44;;;;;;;0.98;0.98;;;;;;;;;;5036530;28;20183;-80
2022/01/06 07:35:11;;;;;;;2.35;1.38;;;;;;;;;;5036895;28;20182;-80
2022/01/06 07:37:39;;;;;;;1.58;1.48;;;;;;;;;;5036570;28;20218;-80
2022/01/06 07:40:08;;;;;;;6.18;1.83;;;;;;;;;;5036583;28;20183;-79
2022/01/06 07:42:38;;;;;;;1.48;1.23;;;;;;;;;;5036163;28;20217;-79
2022/01/06 07:45:08;;;;;;;1.25;1.15;;;;;;;;;;5035924;28;20198;-79
2022/01/06 07:47:43;;;;;;;2.95;1.77;;;;;;;;;;5032943;28;20805;-79
2022/01/06 07:50:10;;;;;;;2.13;1.85;;;;;;;;;;5035759;28;20205;-79
2022/01/06 07:52:38;;;;;;;3.63;1.98;;;;;;;;;;5035709;28;20187;-79
2022/01/06 07:55:07;;;;;;;2.17;1.27;;;;;;;;;;5034704;28;20220;-79
2022/01/06 07:57:34;;;;;;;3.28;1.90;;;;;;;;;;5033558;28;20313;-79
2022/01/06 08:00:02;;;;;;;1.83;1.30;;;;;;;;;;5029709;28;20190;-79
2022/01/06 08:02:33;;;;;;;1.30;1.20;;;;;;;;;;5034505;28;20288;-79
2022/01/06 08:05:00;;;;;;;4.85;2.08;;;;;;;;;;5035302;28;20677;-79
2022/01/06 08:07:28;;;;;;;3.20;1.60;;;;;;;;;;5035191;28;20241;-79
2022/01/06 08:09:55;;;;;;;4.63;2.03;;;;;;;;;;5034836;28;20206;-80
2022/01/06 08:12:22;;;;;;;2.70;1.90;;;;;;;;;;5034714;28;20206;-80
2022/01/06 08:14:50;;;;;;;4.88;2.50;;;;;;;;;;5034513;28;20734;-79
2022/01/06 08:17:17;;;;;;;3.53;1.73;;;;;;;;;;5034522;28;20222;-79
2022/01/06 08:19:47;;;;;;;1.42;1.30;;;;;;;;;;5035041;28;20685;-79
2022/01/06 08:22:14;;;;;;;1.77;1.30;;;;;;;;;;5034603;28;20187;-79
2022/01/06 08:24:42;;;;;;;2.63;1.65;;;;;;;;;;5035276;28;20187;-78
2022/01/06 08:27:10;;;;;;;1.92;1.60;;;;;;;;;;5036280;28;20229;-84
2022/01/06 08:29:38;;;;;;;3.97;2.00;;;;;;;;;;5036425;28;20222;-84
2022/01/06 08:32:07;;;;;;;3.95;3.17;;;;;;;;;;5035906;28;20194;-83
2022/01/06 08:34:35;;;;;;;2.63;2.15;;;;;;;;;;5035897;28;20187;-82
2022/01/06 08:37:04;;;;;;;2.88;2.05;;;;;;;;;;5036659;28;20313;-82
2022/01/06 08:39:32;;;;;;;5.35;3.08;;;;;;;;;;5036183;28;20195;-82
2022/01/06 08:41:59;;;;;;;2.47;2.25;;;;;;;;;;5036817;28;20186;-83
2022/01/06 08:44:27;;;;;;;2.13;1.92;;;;;;;;;;5036038;28;20202;-82
2022/01/06 08:46:55;;;;;;;2.03;1.90;;;;;;;;;;5036233;28;20230;-82
2022/01/06 08:49:23;;;;;;;4.18;2.95;;;;;;;;;;5035461;28;20293;-84
2022/01/06 08:51:50;;;;;;;2.63;2.20;;;;;;;;;;5036246;28;20215;-84
2022/01/06 08:54:19;;;;;;;5.93;2.70;;;;;;;;;;5035880;28;20205;-85
2022/01/06 08:56:47;;;;;;;2.58;2.10;;;;;;;;;;5036677;28;20223;-83
2022/01/06 08:59:14;;;;;;;2.35;2.10;;;;;;;;;;5037277;28;20217;-84
2022/01/06 09:01:42;;;;;;;3.28;2.20;;;;;;;;;;5057434;28;20182;-84
2022/01/06 09:04:09;;;;;;;2.35;2.15;;;;;;;;;;5049141;28;20202;-82
2022/01/06 09:06:37;;;;;;;4.38;2.20;;;;;;;;;;5037024;28;20229;-83
2022/01/06 09:09:04;;;;;;;2.55;1.90;;;;;;;;;;5036883;28;20202;-84
2022/01/06 09:11:33;;;;;;;3.72;2.00;;;;;;;;;;5036744;28;20194;-84
2022/01/06 09:14:01;;;;;;;2.65;2.42;;;;;;;;;;5037308;28;20234;-84
2022/01/06 09:16:28;;;;;;;9.63;3.28;;;;;;;;;;5035507;28;20213;-83
2022/01/06 09:18:56;;;;;;;5.32;2.85;;;;;;;;;;5035668;28;20683;-83
2022/01/06 09:21:24;;;;;;;4.38;2.70;;;;;;;;;;5035516;28;20207;-84
2022/01/06 09:23:51;;;;;;;4.15;3.25;;;;;;;;;;5029253;28;20186;-85
2022/01/06 09:26:20;;;;;;;3.58;2.88;;;;;;;;;;5036027;28;20202;-85
2022/01/06 09:28:48;;;;;;;3.75;3.45;;;;;;;;;;5036226;28;20211;-84
2022/01/06 09:31:16;;;;;;;6.70;3.47;;;;;;;;;;5023307;28;20197;-85
2022/01/06 09:33:43;;;;;;;4.22;2.38;;;;;;;;;;5035413;28;20179;-84
2022/01/06 09:36:11;;;;;;;3.40;2.75;;;;;;;;;;5034966;28;20195;-86
2022/01/06 09:38:38;;;;;;;3.78;2.10;;;;;;;;;;5035392;28;20201;-84
2022/01/06 09:41:07;;;;;;;5.25;2.70;;;;;;;;;;5035657;28;20193;-84
2022/01/06 09:43:36;;;;;;;3.45;2.47;;;;;;;;;;5054802;28;20182;-84
2022/01/06 09:46:08;;;;;;;3.45;2.88;;;;;;;;;;5046066;28;20202;-85
2022/01/06 09:48:39;;;;;;;6.47;3.00;;;;;;;;;;5029404;28;20227;-85
2022/01/06 09:51:07;;;;;;;3.67;2.42;;;;;;;;;;5016098;28;20274;-83
2022/01/06 09:53:34;;;;;;;2.85;2.30;;;;;;;;;;5015382;28;20180;-83
2022/01/06 09:56:02;;;;;;;3.60;2.40;;;;;;;;;;5015321;28;20589;-84
2022/01/06 09:58:30;;;;;;;10.90;2.40;;;;;;;;;;5028719;28;20198;-84
2022/01/06 10:00:59;;;;;;;5.30;2.83;;;;;;;;;;5014166;28;20188;-84
2022/01/06 10:03:38;;;;;;;2.40;1.80;;;;;;;;;;5035165;28;20228;-84
2022/01/06 10:06:14;;;;;;;4.72;2.83;;;;;;;;;;5033844;28;20200;-83
2022/01/06 10:08:42;;;;;;;3.45;1.95;;;;;;;;;;5040337;28;20192;-83
2022/01/06 10:11:14;;;;;;;2.65;2.13;;;;;;;;;;5042988;28;20205;-84
2022/01/06 10:13:45;;;;;;;5.70;2.50;;;;;;;;;;5038474;28;20229;-83
2022/01/06 10:16:15;;;;;;;4.05;1.70;;;;;;;;;;5038556;28;20186;-84
2022/01/06 10:19:04;;;;;;;3.50;2.00;;;;;;;;;;5042047;28;20548;-83
2022/01/06 10:21:43;;;;;;;3.85;2.47;;;;;;;;;;5019286;28;20183;-84
2022/01/06 10:24:14;;;;;;;3.70;2.53;;;;;;;;;;5019162;28;20209;-84
2022/01/06 10:26:55;;;;;;;5.00;2.90;;;;;;;;;;5018875;28;20230;-86
2022/01/06 10:29:27;;;;;;;3.03;2.38;;;;;;;;;;5018999;28;20712;-84
2022/01/06 10:32:06;;;;;;;2.97;1.85;;;;;;;;;;5018624;28;20237;-83
2022/01/06 10:34:39;;;;;;;10.35;3.00;;;;;;;;;;5036737;28;20201;-83
2022/01/06 10:37:19;;;;;;;4.85;2.13;;;;;;;;;;5038237;28;20214;-83
2022/01/06 10:39:50;;;;;;;6.32;2.13;;;;;;;;;;5038058;28;20187;-83
2022/01/06 10:42:22;;;;;;;3.45;2.30;;;;;;;;;;5038253;28;20677;-83
2022/01/06 10:44:53;;;;;;;4.15;2.40;;;;;;;;;;5038541;28;20643;-83
2022/01/06 10:47:32;;;;;;;7.00;2.38;;;;;;;;;;5038005;28;20210;-83
2022/01/06 10:50:13;;;;;;;3.05;2.00;;;;;;;;;;5038093;28;20720;-83
2022/01/06 10:52:46;;;;;;;2.97;2.03;;;;;;;;;;5028747;28;20666;-83
2022/01/06 10:55:17;;;;;;;2.97;2.08;;;;;;;;;;5022432;28;20190;-83
2022/01/06 10:57:55;;;;;;;4.18;2.35;;;;;;;;;;5037236;28;20221;-83
2022/01/06 11:00:26;;;;;;;4.13;2.25;;;;;;;;;;5036781;28;20186;-83
2022/01/06 11:02:54;;;;;;;6.88;2.00;;;;;;;;;;5036423;28;20200;-83
2022/01/06 11:05:23;;;;;;;4.43;1.95;;;;;;;;;;5036396;28;20198;-83
2022/01/06 11:07:51;;;;;;;5.60;1.65;;;;;;;;;;5036105;28;20625;-83
2022/01/06 11:10:21;;;;;;;5.72;2.58;;;;;;;;;;5036205;28;20556;-83
2022/01/06 11:12:50;;;;;;;5.28;2.35;;;;;;;;;;5037588;28;20226;-86
2022/01/06 11:15:19;;;;;;;6.20;3.33;;;;;;;;;;5037860;28;20230;-84
2022/01/06 11:17:51;;;;;;;2.60;2.40;;;;;;;;;;5037591;28;20218;-83
2022/01/06 11:20:26;;;;;;;5.10;3.35;;;;;;;;;;5037160;28;20194;-83
2022/01/06 11:22:55;;;;;;;1.88;1.75;;;;;;;;;;5036529;28;20202;-84
2022/01/06 11:25:35;;;;;;;7.00;2.33;;;;;;;;;;5037046;28;20615;-84
2022/01/06 11:28:06;;;;;;;5.35;2.42;;;;;;;;;;5018728;28;20226;-86
2022/01/06 11:30:42;;;;;;;7.25;2.67;;;;;;;;;;5018399;28;20576;-85
2022/01/06 11:33:12;;;;;;;1.70;1.60;;;;;;;;;;5018322;28;20186;-85
2022/01/06 11:35:55;;;;;;;2.63;1.73;;;;;;;;;;5018379;28;20643;-84
2022/01/06 11:38:26;;;;;;;3.17;2.00;;;;;;;;;;5018843;28;20219;-85
2022/01/06 11:41:06;;;;;;;3.75;2.40;;;;;;;;;;5018570;28;20187;-85
2022/01/06 11:43:37;;;;;;;3.30;2.13;;;;;;;;;;5018663;28;20194;-85
2022/01/06 11:46:06;;;;;;;2.67;2.05;;;;;;;;;;5018797;28;20187;-84
2022/01/06 11:48:47;;;;;;;2.53;2.22;;;;;;;;;;5018792;28;20190;-85
2022/01/06 11:51:29;;;;;;;2.88;2.38;;;;;;;;;;5018409;28;20211;-85
2022/01/06 11:54:00;;;;;;;9.65;2.60;;;;;;;;;;5018217;28;20650;-84
2022/01/06 11:56:28;;;;;;;5.45;2.13;;;;;;;;;;5017866;28;20223;-85
2022/01/06 11:59:01;;;;;;;2.92;1.80;;;;;;;;;;5017546;28;20214;-86
2022/01/06 12:01:28;;;;;;;3.58;1.75;;;;;;;;;;5018636;28;20187;-85
2022/01/06 12:03:58;;;;;;;5.03;2.22;;;;;;;;;;5018506;28;20203;-86
2022/01/06 12:06:30;;;;;;;4.78;3.20;;;;;;;;;;5018150;28;20227;-85
2022/01/06 12:08:59;;;;;;;2.83;2.00;;;;;;;;;;5018272;28;20191;-84
2022/01/06 12:11:29;;;;;;;4.85;2.65;;;;;;;;;;5018705;28;20561;-84
2022/01/06 12:14:00;;;;;;;5.10;2.28;;;;;;;;;;5018293;28;20241;-86
2022/01/06 12:17:13;;;;;;;3.05;2.13;;;;;;;;;;5019528;28;20226;-85
2022/01/06 12:19:41;;;;;;;2.65;1.70;;;;;;;;;;5020405;28;20283;-85
2022/01/06 12:22:13;;;;;;;4.03;1.90;;;;;;;;;;5020841;28;20199;-86
2022/01/06 12:24:41;;;;;;;3.58;1.85;;;;;;;;;;5018477;28;20187;-84
2022/01/06 12:27:09;;;;;;;3.70;2.03;;;;;;;;;;5017945;28;20729;-84
2022/01/06 12:29:42;;;;;;;3.80;1.88;;;;;;;;;;5017669;28;20242;-84
2022/01/06 12:32:12;;;;;;;4.28;2.60;;;;;;;;;;5017592;28;20223;-84
2022/01/06 12:34:40;;;;;;;4.60;1.70;;;;;;;;;;5016891;28;20294;-84
2022/01/06 12:37:23;;;;;;;3.25;2.05;;;;;;;;;;5017528;28;20776;-85
2022/01/06 12:39:52;;;;;;;5.65;2.38;;;;;;;;;;5018189;28;20199;-84
2022/01/06 12:42:19;;;;;;;2.20;1.40;;;;;;;;;;5017516;28;20545;-84
2022/01/06 12:44:48;;;;;;;4.75;2.03;;;;;;;;;;5017588;28;20187;-85
2022/01/06 12:47:18;;;;;;;3.63;1.70;;;;;;;;;;5017777;28;20218;-85
2022/01/06 12:49:45;;;;;;;4.80;2.15;;;;;;;;;;5018265;28;20191;-84
2022/01/06 12:52:14;;;;;;;3.38;1.55;;;;;;;;;;5017186;28;20227;-86
2022/01/06 12:54:43;;;;;;;3.05;2.03;;;;;;;;;;5018185;28;20202;-85
2022/01/06 12:57:13;;;;;;;4.30;2.00;;;;;;;;;;5017471;28;20222;-85
2022/01/06 12:59:46;;;;;;;3.15;1.88;;;;;;;;;;5017490;28;20574;-85
2022/01/06 13:02:16;;;;;;;4.57;2.30;;;;;;;;;;5037438;28;20244;-85
2022/01/06 13:04:46;;;;;;;2.42;1.63;;;;;;;;;;5036870;28;20199;-85
2022/01/06 13:07:17;;;;;;;3.60;1.95;;;;;;;;;;5036469;28;20736;-85
2022/01/06 13:09:48;;;;;;;4.78;2.08;;;;;;;;;;5036083;28;20663;-87
2022/01/06 13:12:25;;;;;;;9.10;2.97;;;;;;;;;;5037624;28;20214;-85
2022/01/06 13:14:54;;;;;;;1.90;1.35;;;;;;;;;;5037305;28;20198;-85
2022/01/06 13:17:29;;;;;;;2.20;1.83;;;;;;;;;;5037623;28;20234;-86
2022/01/06 13:20:00;;;;;;;3.05;1.73;;;;;;;;;;5037231;28;20189;-84
2022/01/06 13:22:49;;;;;;;2.03;1.70;;;;;;;;;;5037701;28;20187;-84
2022/01/06 13:25:18;;;;;;;2.25;1.35;;;;;;;;;;5038352;28;20209;-85
2022/01/06 13:27:56;;;;;;;3.55;1.42;;;;;;;;;;5038230;28;20236;-85
2022/01/06 13:30:33;;;;;;;2.28;2.08;;;;;;;;;;5037396;28;20213;-85
2022/01/06 13:33:04;;;;;;;1.83;1.42;;;;;;;;;;5037086;28;20200;-85
2022/01/06 13:35:32;;;;;;;2.67;1.75;;;;;;;;;;5018995;28;20203;-85
2022/01/06 13:38:04;;;;;;;3.70;2.33;;;;;;;;;;5033193;28;20236;-85
2022/01/06 13:40:33;;;;;;;7.30;2.63;;;;;;;;;;5038430;28;20671;-85
2022/01/06 13:43:00;;;;;;;3.05;2.28;;;;;;;;;;5037608;28;20179;-85
2022/01/06 13:45:32;;;;;;;2.92;2.53;;;;;;;;;;5037847;28;20205;-84
2022/01/06 13:48:30;;;;;;;6.72;4.57;;;;;;;;;;5020719;28;20230;-85
2022/01/06 13:51:08;;;;;;;4.72;3.75;;;;;;;;;;5017745;28;20202;-86
2022/01/06 13:53:42;;;;;;;7.13;4.55;;;;;;;;;;5017286;28;20207;-84
2022/01/06 13:56:13;;;;;;;5.38;3.17;;;;;;;;;;5032642;28;20217;-86
2022/01/06 13:58:43;;;;;;;3.58;3.05;;;;;;;;;;5037606;28;20194;-85
2022/01/06 14:01:14;;;;;;;4.18;3.08;;;;;;;;;;5037639;28;20205;-85
2022/01/06 14:03:44;;;;;;;6.75;1.88;;;;;;;;;;5037879;28;20197;-85
2022/01/06 14:06:16;;;;;;;1.58;1.48;;;;;;;;;;5037120;28;20213;-85
2022/01/06 14:08:51;;;;;;;2.83;1.92;;;;;;;;;;5036910;28;20194;-86
2022/01/06 14:11:25;;;;;;;2.88;2.03;;;;;;;;;;5038493;28;20209;-86
2022/01/06 14:13:54;;;;;;;2.80;1.65;;;;;;;;;;5037460;28;20325;-86
2022/01/06 14:16:23;;;;;;;5.22;2.40;;;;;;;;;;5036096;28;20182;-86
2022/01/06 14:19:00;;;;;;;5.32;2.00;;;;;;;;;;5034942;28;20640;-86
2022/01/06 14:21:29;;;;;;;1.33;1.23;;;;;;;;;;5034972;28;20182;-86
2022/01/06 14:23:58;;;;;;;3.72;2.20;;;;;;;;;;5038381;28;20182;-85
2022/01/06 14:26:27;;;;;;;4.45;2.22;;;;;;;;;;5037520;28;20698;-85
2022/01/06 14:28:57;;;;;;;3.92;2.70;;;;;;;;;;5038465;28;20199;-86
2022/01/06 14:31:24;;;;;;;1.92;1.58;;;;;;;;;;5038404;28;20213;-86
2022/01/06 14:33:52;;;;;;;1.52;1.23;;;;;;;;;;5037923;28;20203;-86
2022/01/06 14:36:21;;;;;;;1.60;1.50;;;;;;;;;;5037719;28;20190;-86
2022/01/06 14:38:50;;;;;;;1.75;1.40;;;;;;;;;;5038066;28;20183;-85
2022/01/06 14:41:20;;;;;;;1.63;1.30;;;;;;;;;;5038412;28;20186;-85
2022/01/06 14:43:48;;;;;;;3.70;1.70;;;;;;;;;;5037722;28;20967;-86
2022/01/06 14:46:18;;;;;;;1.98;1.02;;;;;;;;;;5037913;28;20206;-86
2022/01/06 14:48:48;;;;;;;2.95;1.75;;;;;;;;;;5038441;28;20205;-85
2022/01/06 14:51:18;;;;;;;4.03;1.95;;;;;;;;;;5037917;28;20187;-86
2022/01/06 14:54:27;;;;;;;1.20;1.10;;;;;;;;;;5037417;28;20187;-86
2022/01/06 14:56:57;;;;;;;1.27;0.93;;;;;;;;;;5034422;28;20229;-86
2022/01/06 14:59:32;;;;;;;1.17;1.10;;;;;;;;;;5037364;28;20198;-87
2022/01/06 15:02:04;;;;;;;2.53;1.45;;;;;;;;;;5032023;28;20198;-82
2022/01/06 15:04:31;;;;;;;4.15;1.67;;;;;;;;;;5033924;28;20197;-83